createdAt,value
2023-08-15T00:00:28.123Z,93986.98
2023-08-15T00:01:21.547Z,93985.83
2023-08-15T00:01:55.024Z,93989.63
2023-08-15T00:02:28.575Z,93987.66
2023-08-15T00:03:02.171Z,93988.08
2023-08-15T00:03:35.912Z,93986.35
2023-08-15T00:04:09.480Z,93986.30
2023-08-15T00:04:43.172Z,93990.79
2023-08-15T00:05:17.077Z,93985.67
2023-08-15T00:06:11.276Z,93989.41
2023-08-15T00:06:44.754Z,93986.57
2023-08-15T00:07:18.679Z,93986.81
2023-08-15T00:07:52.509Z,93984.44
2023-08-15T00:08:26.152Z,93986.54
2023-08-15T00:09:01.221Z,93983.02
2023-08-15T00:09:34.715Z,93987.95
2023-08-15T00:10:08.738Z,93985.45
2023-08-15T00:10:42.268Z,93991.31
2023-08-15T00:11:15.758Z,93987.73
2023-08-15T00:11:49.067Z,93989.62
2023-08-15T00:12:22.407Z,93989.25
2023-08-15T00:12:57.910Z,93988.08
2023-08-15T00:13:35.179Z,93987.66
2023-08-15T00:14:11.118Z,93988.55
2023-08-15T00:14:44.637Z,93988.56
2023-08-15T00:15:19.366Z,93989.28
2023-08-15T00:15:52.882Z,93986.95
2023-08-15T00:16:26.337Z,93985.29
2023-08-15T00:16:59.905Z,93988.09
2023-08-15T00:17:33.454Z,93987.23
2023-08-15T00:18:07.918Z,93985.33
2023-08-15T00:18:44.182Z,93988.95
2023-08-15T00:19:17.580Z,93988.80
2023-08-15T00:19:51.254Z,93985.95
2023-08-15T00:20:27.312Z,93986.83
2023-08-15T00:21:00.765Z,93986.33
2023-08-15T00:21:34.191Z,93987.04
2023-08-15T00:22:07.767Z,93986.73
2023-08-15T00:22:41.328Z,93986.95
2023-08-15T00:23:15.632Z,93984.64
2023-08-15T00:23:49.103Z,93988.11
2023-08-15T00:24:22.544Z,93983.08
2023-08-15T00:24:55.866Z,93984.92
2023-08-15T00:25:29.247Z,93984.05
2023-08-15T00:26:03.004Z,93982.27
2023-08-15T00:26:36.629Z,93982.98
2023-08-15T00:27:10.198Z,93984.99
2023-08-15T00:27:43.611Z,93984.48
2023-08-15T00:28:16.977Z,93985.33
2023-08-15T00:28:50.363Z,93984.93
2023-08-15T00:29:23.734Z,93983.81
2023-08-15T00:29:57.017Z,93982.08
2023-08-15T00:30:33.921Z,93979.77
2023-08-15T00:31:08.179Z,93983.89
2023-08-15T00:31:41.633Z,93982.00
2023-08-15T00:32:14.992Z,93983.22
2023-08-15T00:32:50.194Z,93983.73
2023-08-15T00:33:23.470Z,93984.64
2023-08-15T00:33:56.841Z,93982.04
2023-08-15T00:34:30.166Z,93985.90
2023-08-15T00:35:07.622Z,93988.81
2023-08-15T00:35:44.093Z,93987.09
2023-08-15T00:36:18.907Z,93987.77
2023-08-15T00:36:52.253Z,93990.17
2023-08-15T00:37:25.561Z,93987.54
2023-08-15T00:37:58.893Z,93989.52
2023-08-15T00:38:32.319Z,93985.27
2023-08-15T00:39:05.740Z,93988.46
2023-08-15T00:39:41.883Z,93987.90
2023-08-15T00:40:16.736Z,93988.27
2023-08-15T00:40:50.069Z,93989.55
2023-08-15T00:41:23.409Z,93988.11
2023-08-15T00:41:56.806Z,93988.29
2023-08-15T00:42:30.138Z,93987.83
2023-08-15T00:43:04.827Z,93987.04
2023-08-15T00:43:39.186Z,93986.42
2023-08-15T00:44:12.457Z,93989.87
2023-08-15T00:44:45.939Z,93991.36
2023-08-15T00:45:23.053Z,93981.08
2023-08-15T00:46:01.120Z,93989.84
2023-08-15T00:46:34.961Z,93979.41
2023-08-15T00:47:09.003Z,93989.74
2023-08-15T00:47:42.673Z,93989.09
2023-08-15T00:48:18.271Z,93985.36
2023-08-15T00:48:52.022Z,93988.88
2023-08-15T00:49:25.414Z,93986.48
2023-08-15T00:49:59.821Z,93991.59
2023-08-15T00:50:33.697Z,93989.56
2023-08-15T00:51:09.379Z,93988.05
2023-08-15T00:51:43.245Z,93988.66
2023-08-15T00:52:19.805Z,93988.49
2023-08-15T00:52:54.350Z,93986.43
2023-08-15T00:53:30.092Z,93988.06
2023-08-15T00:54:03.602Z,93986.09
2023-08-15T00:54:37.558Z,93990.94
2023-08-15T00:55:11.279Z,93986.23
2023-08-15T00:55:46.947Z,93981.23
2023-08-15T00:56:21.870Z,93983.52
2023-08-15T00:56:55.405Z,93981.70
2023-08-15T00:57:28.901Z,93988.10
2023-08-15T00:58:02.324Z,93990.11
2023-08-15T00:58:36.493Z,93989.42
2023-08-15T00:59:10.041Z,93989.85
2023-08-15T00:59:44.965Z,93990.17
2023-08-15T01:00:20.635Z,93987.94
2023-08-15T01:00:54.142Z,93987.13
2023-08-15T01:01:29.950Z,93987.70
2023-08-15T01:02:04.089Z,93991.59
2023-08-15T01:02:38.082Z,93980.27
2023-08-15T01:03:13.889Z,93989.06
2023-08-15T01:03:48.187Z,93990.93
2023-08-15T01:04:21.978Z,93990.88
2023-08-15T01:04:55.604Z,93990.79
2023-08-15T01:05:30.599Z,93984.80
2023-08-15T01:06:04.207Z,93990.64
2023-08-15T01:06:37.724Z,93984.10
2023-08-15T01:07:11.741Z,93984.22
2023-08-15T01:07:45.925Z,93992.59
2023-08-15T01:08:19.488Z,93994.16
2023-08-15T01:08:53.767Z,93991.73
2023-08-15T01:09:27.057Z,93992.66
2023-08-15T01:10:00.434Z,93995.92
2023-08-15T01:10:34.000Z,93993.39
2023-08-15T01:11:07.438Z,93997.27
2023-08-15T01:12:07.561Z,93996.41
2023-08-15T01:12:45.682Z,93994.34
2023-08-15T01:13:31.125Z,94000.24
2023-08-15T01:14:09.832Z,93997.71
2023-08-15T01:14:56.541Z,93997.38
2023-08-15T01:15:33.555Z,93996.57
2023-08-15T01:16:12.681Z,93997.45
2023-08-15T01:16:49.674Z,93996.69
2023-08-15T01:17:32.854Z,93991.81
2023-08-15T01:18:14.422Z,93998.65
2023-08-15T01:18:52.933Z,93995.67
2023-08-15T01:19:48.286Z,93998.20
2023-08-15T01:20:34.685Z,93998.89
2023-08-15T01:21:08.887Z,93997.77
2023-08-15T01:21:49.290Z,93997.00
2023-08-15T01:22:29.561Z,93995.48
2023-08-15T01:23:07.653Z,93995.60
2023-08-15T01:23:45.010Z,93995.49
2023-08-15T01:24:18.648Z,93996.79
2023-08-15T01:24:52.645Z,94000.36
2023-08-15T01:25:27.301Z,93999.89
2023-08-15T01:26:00.759Z,93998.55
2023-08-15T01:26:39.599Z,93995.90
2023-08-15T01:27:13.734Z,93994.11
2023-08-15T01:27:47.115Z,93993.70
2023-08-15T01:28:20.540Z,93993.65
2023-08-15T01:28:54.658Z,93995.19
2023-08-15T01:29:28.112Z,93989.38
2023-08-15T01:30:02.075Z,93989.58
2023-08-15T01:30:35.774Z,93991.64
2023-08-15T01:31:23.892Z,93992.73
2023-08-15T01:32:13.765Z,93990.27
2023-08-15T01:32:54.392Z,93991.60
2023-08-15T01:33:35.770Z,93992.05
2023-08-15T01:34:18.856Z,93991.41
2023-08-15T01:35:00.335Z,93987.75
2023-08-15T01:35:44.839Z,93989.05
2023-08-15T01:36:26.375Z,93991.69
2023-08-15T01:37:10.417Z,93989.89
2023-08-15T01:37:46.406Z,93990.69
2023-08-15T01:38:55.775Z,93989.04
2023-08-15T01:39:32.879Z,93988.46
2023-08-15T01:40:10.647Z,93989.17
2023-08-15T01:40:49.162Z,93992.30
2023-08-15T01:41:26.520Z,93988.72
2023-08-15T01:42:03.017Z,93988.19
2023-08-15T01:42:42.240Z,93990.26
2023-08-15T01:43:18.050Z,93989.47
2023-08-15T01:43:55.941Z,93990.05
2023-08-15T01:44:31.950Z,93992.96
2023-08-15T01:45:06.201Z,93986.90
2023-08-15T01:45:39.766Z,93988.16
2023-08-15T01:46:15.507Z,93986.73
2023-08-15T01:46:49.236Z,93981.42
2023-08-15T01:47:24.948Z,93986.62
2023-08-15T01:47:59.234Z,93987.30
2023-08-15T01:48:32.734Z,93985.34
2023-08-15T01:50:43.648Z,93984.77
2023-08-15T01:51:16.902Z,93987.27
2023-08-15T01:51:52.068Z,93984.15
2023-08-15T01:52:25.406Z,93984.04
2023-08-15T01:52:58.766Z,93985.17
2023-08-15T01:53:31.995Z,93981.55
2023-08-15T01:54:05.394Z,93981.89
2023-08-15T01:54:38.681Z,93981.60
2023-08-15T01:55:12.325Z,93981.36
2023-08-15T01:55:45.592Z,93981.39
2023-08-15T01:56:18.829Z,93981.52
2023-08-15T01:56:52.678Z,93979.84
2023-08-15T01:57:26.054Z,93980.48
2023-08-15T01:58:00.156Z,93981.27
2023-08-15T01:58:33.487Z,93983.38
2023-08-15T01:59:07.773Z,93982.66
2023-08-15T01:59:41.022Z,93981.36
2023-08-15T02:00:14.513Z,93983.32
2023-08-15T02:00:50.477Z,93980.92
2023-08-15T02:01:23.766Z,93975.27
2023-08-15T02:01:57.141Z,93981.07
2023-08-15T02:02:30.646Z,93982.75
2023-08-15T02:03:04.496Z,93983.29
2023-08-15T02:03:38.021Z,93985.65
2023-08-15T02:04:11.277Z,93983.26
2023-08-15T02:04:44.646Z,93982.55
2023-08-15T02:05:18.426Z,93986.91
2023-08-15T02:05:51.738Z,93985.06
2023-08-15T02:06:27.127Z,93983.28
2023-08-15T02:07:00.610Z,93982.64
2023-08-15T02:07:33.915Z,93984.10
2023-08-15T02:08:07.519Z,93985.02
2023-08-15T02:08:40.877Z,93984.85
2023-08-15T02:09:14.200Z,93980.95
2023-08-15T02:09:47.493Z,93983.63
2023-08-15T02:10:20.868Z,93984.42
2023-08-15T02:10:55.350Z,93983.70
2023-08-15T02:11:28.709Z,93981.25
2023-08-15T02:12:02.355Z,93983.86
2023-08-15T02:12:35.819Z,93977.63
2023-08-15T02:13:09.157Z,93982.83
2023-08-15T02:13:42.406Z,93984.16
2023-08-15T02:14:15.718Z,93983.76
2023-08-15T02:14:49.032Z,93984.31
2023-08-15T02:15:22.425Z,93981.14
2023-08-15T02:15:55.903Z,93982.18
2023-08-15T02:16:29.397Z,93980.21
2023-08-15T02:17:02.666Z,93982.98
2023-08-15T02:17:36.246Z,93977.08
2023-08-15T02:18:09.782Z,93980.33
2023-08-15T02:18:43.300Z,93981.23
2023-08-15T02:19:16.939Z,93979.88
2023-08-15T02:19:50.564Z,93980.91
2023-08-15T02:20:23.827Z,93979.15
2023-08-15T02:20:57.398Z,93983.63
2023-08-15T02:21:31.217Z,93980.65
2023-08-15T02:22:04.628Z,93981.57
2023-08-15T02:22:38.001Z,93979.70
2023-08-15T02:23:13.145Z,93982.15
2023-08-15T02:23:46.394Z,93978.96
2023-08-15T02:24:19.779Z,93981.09
2023-08-15T02:24:53.044Z,93981.84
2023-08-15T02:25:26.375Z,93974.39
2023-08-15T02:25:59.771Z,93977.26
2023-08-15T02:26:37.101Z,93977.27
2023-08-15T02:27:10.484Z,93973.46
2023-08-15T02:27:43.788Z,93974.83
2023-08-15T02:28:17.025Z,93974.46
2023-08-15T02:28:50.237Z,93974.03
2023-08-15T02:29:25.885Z,93974.89
2023-08-15T02:29:59.334Z,93973.13
2023-08-15T02:30:38.488Z,93974.92
2023-08-15T02:31:12.440Z,93972.33
2023-08-15T02:31:49.298Z,93972.38
2023-08-15T02:32:22.569Z,93971.55
2023-08-15T02:32:55.956Z,93970.54
2023-08-15T02:33:29.222Z,93971.19
2023-08-15T02:34:02.516Z,93974.43
2023-08-15T02:34:35.883Z,93975.80
2023-08-15T02:35:10.538Z,93972.46
2023-08-15T02:35:43.709Z,93973.34
2023-08-15T02:36:17.009Z,93971.53
2023-08-15T02:36:50.610Z,93968.30
2023-08-15T02:37:24.730Z,93969.88
2023-08-15T02:37:58.079Z,93972.59
2023-08-15T02:38:31.362Z,93971.52
2023-08-15T02:39:05.062Z,93969.88
2023-08-15T02:39:38.352Z,93968.20
2023-08-15T02:40:11.855Z,93969.15
2023-08-15T02:40:45.175Z,93968.59
2023-08-15T02:41:18.520Z,93966.59
2023-08-15T02:41:52.749Z,93968.80
2023-08-15T02:42:27.201Z,93964.14
2023-08-15T02:43:00.496Z,93966.22
2023-08-15T02:43:33.826Z,93967.55
2023-08-15T02:44:07.168Z,93965.14
2023-08-15T02:44:40.538Z,93963.94
2023-08-15T02:45:13.830Z,93965.42
2023-08-15T02:45:47.070Z,93962.72
2023-08-15T02:46:21.282Z,93966.17
2023-08-15T02:46:54.578Z,93964.00
2023-08-15T02:47:28.097Z,93964.74
2023-08-15T02:48:01.308Z,93965.29
2023-08-15T02:48:36.342Z,93964.81
2023-08-15T02:49:09.584Z,93963.04
2023-08-15T02:49:42.832Z,93963.27
2023-08-15T02:50:16.534Z,93964.16
2023-08-15T02:50:49.962Z,93962.73
2023-08-15T02:51:23.222Z,93962.46
2023-08-15T02:51:56.685Z,93965.76
2023-08-15T02:52:30.049Z,93963.74
2023-08-15T02:53:03.437Z,93961.63
2023-08-15T02:53:37.582Z,93961.98
2023-08-15T02:54:10.960Z,93961.47
2023-08-15T02:54:44.361Z,93960.80
2023-08-15T02:55:17.789Z,93959.34
2023-08-15T02:55:54.281Z,93959.92
2023-08-15T02:56:27.665Z,93957.73
2023-08-15T02:57:01.007Z,93958.30
2023-08-15T02:57:34.673Z,93956.51
2023-08-15T02:58:08.089Z,93955.85
2023-08-15T02:58:42.191Z,93955.54
2023-08-15T02:59:15.402Z,93959.38
2023-08-15T02:59:48.664Z,93957.84
2023-08-15T03:00:22.242Z,93958.54
2023-08-15T03:00:55.646Z,93956.33
2023-08-15T03:01:29.017Z,93960.59
2023-08-15T03:02:03.718Z,93953.40
2023-08-15T03:02:37.309Z,93958.97
2023-08-15T03:03:11.142Z,93957.69
2023-08-15T03:03:44.546Z,93956.94
2023-08-15T03:04:17.864Z,93957.63
2023-08-15T03:04:51.173Z,93954.63
2023-08-15T03:05:24.365Z,93957.32
2023-08-15T03:06:04.966Z,93956.69
2023-08-15T03:06:38.744Z,93959.28
2023-08-15T03:07:11.992Z,93961.83
2023-08-15T03:07:45.293Z,93959.04
2023-08-15T03:08:18.616Z,93960.30
2023-08-15T03:08:51.903Z,93962.48
2023-08-15T03:09:25.161Z,93961.95
2023-08-15T03:09:58.445Z,93959.48
2023-08-15T03:10:34.698Z,93959.77
2023-08-15T03:11:08.031Z,93960.52
2023-08-15T03:11:41.305Z,93960.73
2023-08-15T03:12:14.609Z,93959.25
2023-08-15T03:12:47.849Z,93958.53
2023-08-15T03:13:21.098Z,93960.78
2023-08-15T03:13:54.610Z,93962.22
2023-08-15T03:14:30.831Z,93958.98
2023-08-15T03:15:05.379Z,93960.66
2023-08-15T03:15:39.135Z,93959.34
2023-08-15T03:16:12.815Z,93961.80
2023-08-15T03:16:46.239Z,93958.93
2023-08-15T03:17:20.988Z,93957.62
2023-08-15T03:17:55.552Z,93956.24
2023-08-15T03:18:28.930Z,93958.02
2023-08-15T03:19:02.226Z,93958.70
2023-08-15T03:19:36.114Z,93957.29
2023-08-15T03:20:10.611Z,93959.61
2023-08-15T03:20:43.899Z,93960.46
2023-08-15T03:21:17.987Z,93958.65
2023-08-15T03:21:51.367Z,93955.00
2023-08-15T03:22:24.735Z,93958.81
2023-08-15T03:22:58.084Z,93955.09
2023-08-15T03:23:32.033Z,93955.94
2023-08-15T03:24:05.636Z,93957.65
2023-08-15T03:24:39.468Z,93956.86
2023-08-15T03:25:12.830Z,93942.30
2023-08-15T03:25:46.030Z,93955.64
2023-08-15T03:26:19.531Z,93958.45
2023-08-15T03:26:52.929Z,93957.13
2023-08-15T03:27:26.259Z,93955.16
2023-08-15T03:27:59.528Z,93956.02
2023-08-15T03:28:35.326Z,93955.81
2023-08-15T03:29:08.691Z,93955.45
2023-08-15T03:29:42.012Z,93954.41
2023-08-15T03:30:15.397Z,93950.29
2023-08-15T03:30:48.877Z,93959.04
2023-08-15T03:31:23.300Z,93957.66
2023-08-15T03:32:01.210Z,93955.75
2023-08-15T03:32:36.615Z,93959.69
2023-08-15T03:33:10.314Z,93958.30
2023-08-15T03:33:43.645Z,93956.34
2023-08-15T03:34:17.417Z,93958.79
2023-08-15T03:34:51.122Z,93961.76
2023-08-15T03:35:25.012Z,93958.30
2023-08-15T03:35:58.374Z,93959.33
2023-08-15T03:36:31.679Z,93957.61
2023-08-15T03:37:05.186Z,93959.95
2023-08-15T03:37:38.448Z,93958.00
2023-08-15T03:38:11.957Z,93961.89
2023-08-15T03:38:45.364Z,93961.26
2023-08-15T03:39:18.694Z,93963.13
2023-08-15T03:39:51.999Z,93961.91
2023-08-15T03:40:25.343Z,93961.27
2023-08-15T03:41:06.575Z,93959.00
2023-08-15T03:41:39.756Z,93957.11
2023-08-15T03:42:12.993Z,93963.79
2023-08-15T03:42:46.243Z,93963.40
2023-08-15T03:43:19.427Z,93962.71
2023-08-15T03:43:52.729Z,93960.59
2023-08-15T03:44:26.008Z,93962.73
2023-08-15T03:44:59.390Z,93964.59
2023-08-15T03:45:32.878Z,93962.58
2023-08-15T03:46:08.131Z,93961.58
2023-08-15T03:46:42.192Z,93963.38
2023-08-15T03:47:15.457Z,93963.64
2023-08-15T03:47:51.193Z,93960.20
2023-08-15T03:48:24.525Z,93961.80
2023-08-15T03:48:57.878Z,93962.91
2023-08-15T03:49:33.255Z,93962.87
2023-08-15T03:50:06.747Z,93963.54
2023-08-15T03:50:40.200Z,93961.10
2023-08-15T03:51:22.778Z,93960.27
2023-08-15T03:52:06.230Z,93960.69
2023-08-15T03:52:39.626Z,93961.55
2023-08-15T03:53:12.982Z,93961.23
2023-08-15T03:53:47.496Z,93961.45
2023-08-15T03:54:20.857Z,93965.16
2023-08-15T03:54:54.265Z,93961.98
2023-08-15T03:55:29.778Z,93963.29
2023-08-15T03:56:03.170Z,93964.56
2023-08-15T03:56:37.432Z,93964.58
2023-08-15T03:57:10.730Z,93968.08
2023-08-15T03:57:44.058Z,93966.70
2023-08-15T03:58:18.555Z,93965.95
2023-08-15T03:58:51.852Z,93964.19
2023-08-15T03:59:25.101Z,93968.06
2023-08-15T03:59:58.318Z,93965.68
2023-08-15T04:00:31.658Z,93966.89
2023-08-15T04:01:05.509Z,93967.91
2023-08-15T04:01:39.052Z,93963.55
2023-08-15T04:02:12.372Z,93969.38
2023-08-15T04:02:46.446Z,93969.39
2023-08-15T04:03:20.010Z,93969.50
2023-08-15T04:03:53.424Z,93969.18
2023-08-15T04:04:26.770Z,93969.30
2023-08-15T04:05:00.136Z,93968.88
2023-08-15T04:05:33.474Z,93972.25
2023-08-15T04:06:06.729Z,93970.77
2023-08-15T04:06:40.112Z,93973.95
2023-08-15T04:07:13.367Z,93971.83
2023-08-15T04:07:46.862Z,93971.84
2023-08-15T04:08:20.164Z,93972.63
2023-08-15T04:08:53.505Z,93975.89
2023-08-15T04:09:27.967Z,93972.77
2023-08-15T04:10:01.369Z,93973.61
2023-08-15T04:10:40.913Z,93974.79
2023-08-15T04:11:14.387Z,93972.35
2023-08-15T04:11:48.862Z,93971.98
2023-08-15T04:12:22.085Z,93973.71
2023-08-15T04:12:56.103Z,93976.91
2023-08-15T04:13:29.444Z,93975.91
2023-08-15T04:14:02.786Z,93978.33
2023-08-15T04:14:36.165Z,93973.88
2023-08-15T04:15:10.111Z,93977.17
2023-08-15T04:15:43.466Z,93978.02
2023-08-15T04:16:16.922Z,93976.48
2023-08-15T04:16:50.213Z,93978.50
2023-08-15T04:17:23.835Z,93975.08
2023-08-15T04:17:57.277Z,93971.39
2023-08-15T04:18:30.653Z,93973.52
2023-08-15T04:19:04.164Z,93975.08
2023-08-15T04:19:37.664Z,93976.31
2023-08-15T04:20:13.662Z,93974.67
2023-08-15T04:20:49.307Z,93975.84
2023-08-15T04:21:22.582Z,93976.69
2023-08-15T04:21:55.901Z,93975.58
2023-08-15T04:22:29.226Z,93973.56
2023-08-15T04:23:04.183Z,93972.50
2023-08-15T04:23:37.418Z,93972.66
2023-08-15T04:24:10.737Z,93974.14
2023-08-15T04:24:44.164Z,93974.40
2023-08-15T04:25:17.971Z,93975.90
2023-08-15T04:25:51.346Z,93975.42
2023-08-15T04:26:24.952Z,93977.34
2023-08-15T04:27:00.863Z,93976.27
2023-08-15T04:27:34.360Z,93976.38
2023-08-15T04:28:08.299Z,93974.58
2023-08-15T04:28:42.917Z,93975.38
2023-08-15T04:29:16.270Z,93975.72
2023-08-15T04:29:49.565Z,93976.40
2023-08-15T04:30:23.009Z,93976.63
2023-08-15T04:30:56.370Z,93978.70
2023-08-15T04:31:29.753Z,93979.08
2023-08-15T04:32:03.207Z,93978.58
2023-08-15T04:32:37.161Z,93982.59
2023-08-15T04:33:10.622Z,93981.05
2023-08-15T04:33:43.991Z,93984.49
2023-08-15T04:34:17.479Z,93982.16
2023-08-15T04:34:50.725Z,93986.02
2023-08-15T04:35:25.914Z,93980.89
2023-08-15T04:35:59.299Z,93987.11
2023-08-15T04:36:32.554Z,93983.49
2023-08-15T04:37:06.266Z,93985.40
2023-08-15T04:37:39.896Z,93982.54
2023-08-15T04:38:15.762Z,93986.40
2023-08-15T04:38:49.119Z,93984.34
2023-08-15T04:39:23.048Z,93983.70
2023-08-15T04:39:56.500Z,93983.38
2023-08-15T04:40:35.337Z,93984.17
2023-08-15T04:41:08.761Z,93985.24
2023-08-15T04:41:43.347Z,93981.73
2023-08-15T04:42:17.171Z,93981.31
2023-08-15T04:42:51.712Z,93985.71
2023-08-15T04:43:25.101Z,93984.86
2023-08-15T04:43:58.875Z,93986.19
2023-08-15T04:44:33.115Z,93986.36
2023-08-15T04:45:06.845Z,93990.23
2023-08-15T04:45:45.376Z,93986.98
2023-08-15T04:46:19.334Z,93988.70
2023-08-15T04:46:52.791Z,93986.52
2023-08-15T04:47:26.152Z,93987.84
2023-08-15T04:47:59.827Z,93985.29
2023-08-15T04:48:33.284Z,93988.58
2023-08-15T04:49:06.636Z,93984.65
2023-08-15T04:49:40.189Z,93986.52
2023-08-15T04:50:13.690Z,93985.92
2023-08-15T04:50:47.256Z,93986.87
2023-08-15T04:51:20.619Z,93979.54
2023-08-15T04:51:53.993Z,93981.27
2023-08-15T04:52:27.384Z,93979.15
2023-08-15T04:53:00.821Z,93977.65
2023-08-15T04:53:34.203Z,93978.88
2023-08-15T04:54:09.147Z,93979.77
2023-08-15T04:54:42.454Z,93981.80
2023-08-15T04:55:16.087Z,93979.30
2023-08-15T04:55:49.422Z,93976.27
2023-08-15T04:56:23.908Z,93975.64
2023-08-15T04:56:57.216Z,93979.67
2023-08-15T04:57:30.447Z,93979.67
2023-08-15T04:58:04.254Z,93978.45
2023-08-15T04:58:37.552Z,93977.80
2023-08-15T04:59:10.778Z,93977.85
2023-08-15T04:59:44.144Z,93977.58
2023-08-15T05:00:20.534Z,93982.08
2023-08-15T05:00:54.944Z,93982.17
2023-08-15T05:01:28.279Z,93977.34
2023-08-15T05:02:01.601Z,93981.92
2023-08-15T05:02:35.504Z,93986.10
2023-08-15T05:03:09.212Z,93979.88
2023-08-15T05:03:42.725Z,93975.56
2023-08-15T05:04:16.096Z,93980.86
2023-08-15T05:04:49.446Z,93982.27
2023-08-15T05:05:22.896Z,93981.16
2023-08-15T05:05:56.470Z,93980.00
2023-08-15T05:06:29.875Z,93983.07
2023-08-15T05:07:03.298Z,93981.99
2023-08-15T05:07:37.360Z,93980.77
2023-08-15T05:08:10.704Z,93982.27
2023-08-15T05:08:44.025Z,93981.36
2023-08-15T05:09:18.595Z,93983.16
2023-08-15T05:09:51.776Z,93983.19
2023-08-15T05:10:25.010Z,93983.59
2023-08-15T05:10:58.336Z,93983.10
2023-08-15T05:11:31.868Z,93985.01
2023-08-15T05:12:05.393Z,93985.93
2023-08-15T05:12:38.780Z,93988.78
2023-08-15T05:13:12.198Z,93987.49
2023-08-15T05:13:45.604Z,93989.40
2023-08-15T05:14:18.875Z,93988.85
2023-08-15T05:14:52.164Z,93988.66
2023-08-15T05:15:25.490Z,93989.50
2023-08-15T05:15:58.866Z,93988.12
2023-08-15T05:16:32.260Z,93990.13
2023-08-15T05:17:05.894Z,93986.91
2023-08-15T05:17:39.324Z,93990.25
2023-08-15T05:18:16.755Z,93993.16
2023-08-15T05:18:50.174Z,93990.66
2023-08-15T05:19:23.784Z,93992.92
2023-08-15T05:19:56.990Z,93991.16
2023-08-15T05:20:31.214Z,93993.30
2023-08-15T05:21:04.626Z,93993.94
2023-08-15T05:21:38.150Z,93996.05
2023-08-15T05:22:11.434Z,93995.17
2023-08-15T05:22:45.812Z,93998.92
2023-08-15T05:23:21.191Z,94002.81
2023-08-15T05:23:54.892Z,94001.11
2023-08-15T05:24:28.448Z,94001.91
2023-08-15T05:25:02.391Z,94002.21
2023-08-15T05:25:36.661Z,94001.03
2023-08-15T05:26:10.606Z,94001.92
2023-08-15T05:26:44.135Z,94001.78
2023-08-15T05:27:17.458Z,94000.55
2023-08-15T05:27:51.993Z,94003.45
2023-08-15T05:28:25.300Z,94001.55
2023-08-15T05:28:58.600Z,94000.91
2023-08-15T05:29:35.196Z,94000.95
2023-08-15T05:30:09.383Z,94005.19
2023-08-15T05:30:43.854Z,94000.84
2023-08-15T05:31:17.173Z,94003.70
2023-08-15T05:31:50.507Z,94002.52
2023-08-15T05:32:23.797Z,94003.34
2023-08-15T05:32:57.130Z,94001.13
2023-08-15T05:33:30.970Z,94003.23
2023-08-15T05:34:04.543Z,94000.83
2023-08-15T05:34:37.996Z,94001.69
2023-08-15T05:35:11.867Z,94002.27
2023-08-15T05:35:45.245Z,94002.39
2023-08-15T05:36:18.556Z,94004.07
2023-08-15T05:36:52.490Z,94001.13
2023-08-15T05:37:25.823Z,94000.59
2023-08-15T05:37:59.610Z,94002.26
2023-08-15T05:38:32.899Z,94002.46
2023-08-15T05:39:06.353Z,94004.01
2023-08-15T05:39:40.606Z,93999.91
2023-08-15T05:40:13.969Z,94003.25
2023-08-15T05:40:47.253Z,94004.61
2023-08-15T05:41:20.438Z,94004.88
2023-08-15T05:41:53.769Z,94004.92
2023-08-15T05:42:27.152Z,94006.34
2023-08-15T05:43:00.663Z,94004.97
2023-08-15T05:43:34.014Z,94006.07
2023-08-15T05:44:07.459Z,94010.66
2023-08-15T05:44:40.721Z,94006.05
2023-08-15T05:45:15.846Z,94005.83
2023-08-15T05:45:50.166Z,94007.55
2023-08-15T05:46:23.492Z,94008.67
2023-08-15T05:46:56.812Z,94008.66
2023-08-15T05:47:30.287Z,94009.48
2023-08-15T05:48:05.375Z,94008.23
2023-08-15T05:48:39.821Z,94008.45
2023-08-15T05:49:13.059Z,94008.42
2023-08-15T05:49:46.454Z,94009.66
2023-08-15T05:50:19.723Z,94009.52
2023-08-15T05:50:53.053Z,94009.20
2023-08-15T05:51:26.472Z,94006.14
2023-08-15T05:52:01.403Z,94010.68
2023-08-15T05:52:35.114Z,94009.31
2023-08-15T05:53:08.318Z,94008.61
2023-08-15T05:53:41.863Z,94006.86
2023-08-15T05:54:15.203Z,94006.82
2023-08-15T05:54:48.402Z,94006.09
2023-08-15T05:55:21.699Z,94006.95
2023-08-15T05:55:54.981Z,94007.36
2023-08-15T05:56:28.263Z,94010.77
2023-08-15T05:57:01.537Z,94010.09
2023-08-15T05:57:35.049Z,94006.48
2023-08-15T05:58:08.355Z,94003.27
2023-08-15T05:58:41.625Z,94009.20
2023-08-15T05:59:14.849Z,94007.95
2023-08-15T05:59:48.105Z,94005.56
2023-08-15T06:00:21.422Z,94008.08
2023-08-15T06:00:55.386Z,94007.39
2023-08-15T06:01:28.833Z,94004.77
2023-08-15T06:02:02.137Z,94006.88
2023-08-15T06:02:37.904Z,94005.45
2023-08-15T06:03:11.866Z,94003.00
2023-08-15T06:03:52.473Z,94004.72
2023-08-15T06:04:26.648Z,94002.73
2023-08-15T06:05:00.116Z,94005.91
2023-08-15T06:05:33.567Z,94006.17
2023-08-15T06:06:07.019Z,94006.29
2023-08-15T06:06:40.375Z,94009.10
2023-08-15T06:07:16.658Z,94008.37
2023-08-15T06:07:49.966Z,94008.20
2023-08-15T06:08:59.343Z,94007.34
2023-08-15T06:09:32.658Z,94001.86
2023-08-15T06:10:07.154Z,94006.20
2023-08-15T06:10:40.457Z,94007.80
2023-08-15T06:11:13.818Z,94006.13
2023-08-15T06:11:47.272Z,94007.00
2023-08-15T06:12:20.608Z,94007.53
2023-08-15T06:12:54.085Z,94006.09
2023-08-15T06:13:27.592Z,94003.36
2023-08-15T06:14:00.945Z,94007.27
2023-08-15T06:14:35.794Z,94005.66
2023-08-15T06:15:09.382Z,94007.09
2023-08-15T06:15:42.699Z,94005.92
2023-08-15T06:16:16.036Z,94006.36
2023-08-15T06:16:49.881Z,94009.96
2023-08-15T06:17:23.491Z,94008.05
2023-08-15T06:17:57.088Z,94007.68
2023-08-15T06:18:30.406Z,94008.99
2023-08-15T06:19:03.741Z,94006.49
2023-08-15T06:19:37.365Z,94006.34
2023-08-15T06:20:11.671Z,94005.18
2023-08-15T06:20:45.529Z,94007.90
2023-08-15T06:21:18.842Z,94008.02
2023-08-15T06:21:52.271Z,94006.76
2023-08-15T06:22:25.620Z,94011.20
2023-08-15T06:22:58.988Z,94010.46
2023-08-15T06:23:32.377Z,94012.69
2023-08-15T06:24:06.046Z,94010.32
2023-08-15T06:24:39.476Z,94016.28
2023-08-15T06:25:13.125Z,94010.83
2023-08-15T06:25:46.632Z,94012.98
2023-08-15T06:26:20.064Z,94011.42
2023-08-15T06:26:53.412Z,94014.11
2023-08-15T06:27:26.844Z,94012.00
2023-08-15T06:28:00.056Z,94011.98
2023-08-15T06:28:33.504Z,94009.84
2023-08-15T06:29:07.363Z,94011.33
2023-08-15T06:29:40.701Z,94012.25
2023-08-15T06:30:14.453Z,94013.26
2023-08-15T06:30:47.850Z,94012.89
2023-08-15T06:31:21.282Z,94011.36
2023-08-15T06:31:55.146Z,94012.20
2023-08-15T06:32:29.773Z,94010.85
2023-08-15T06:33:03.182Z,94011.29
2023-08-15T06:33:36.794Z,94012.73
2023-08-15T06:34:10.624Z,94008.45
2023-08-15T06:34:43.896Z,94011.02
2023-08-15T06:35:17.174Z,94007.35
2023-08-15T06:35:50.376Z,94009.90
2023-08-15T06:36:23.839Z,94007.75
2023-08-15T06:36:57.205Z,94008.20
2023-08-15T06:37:30.565Z,94009.60
2023-08-15T06:38:03.897Z,94009.34
2023-08-15T06:38:37.448Z,94008.89
2023-08-15T06:39:10.688Z,94007.50
2023-08-15T06:39:43.965Z,94008.86
2023-08-15T06:40:17.340Z,94008.88
2023-08-15T06:40:51.033Z,94006.67
2023-08-15T06:41:24.278Z,94007.92
2023-08-15T06:41:58.146Z,94008.27
2023-08-15T06:42:31.326Z,94004.31
2023-08-15T06:43:04.886Z,94006.58
2023-08-15T06:43:38.215Z,94005.52
2023-08-15T06:44:11.531Z,94003.41
2023-08-15T06:44:45.067Z,94003.15
2023-08-15T06:45:20.399Z,93996.45
2023-08-15T06:45:53.626Z,94000.17